Terminal Aerodrome Forecast
Issued by NWS

Current Version | Previous Version | Graphics & Text | Print | Product List | Glossary On
Versions: 1 2 3 4 5 6 7 8 9 10 11 12 13 14 15 16
306
FTUS41 KPBZ 162322
TAFMGW
TAF
KMGW 162322Z 1700/1724 25007KT P6SM OVC023
     FM170400 28006KT P6SM OVC035
     FM171500 20004KT P6SM SCT100=

USA.gov is the U.S. government's official web portal to all federal, state and local government web resources and services.